Time;durP1;ratioP1;P1;durP2;ratioP2;P2;SDS_P1;SDS_P2;PMS_P1;PMS_P2;Temp;Humidity;BMP_temperature;BMP_pressure;BME280_temperature;BME280_humidity;BME280_pressure;Samples;Min_cycle;Max_cycle;Signal;HPM_P1;HPM_P2
2022/06/01 00:01:20;;;;;;;7.38;6.47;;;10.80;99.90;;;;;;4996025;28;20046;-76
2022/06/01 00:03:46;;;;;;;9.98;7.13;;;10.80;99.90;;;;;;4995966;28;20124;-76
2022/06/01 00:06:13;;;;;;;9.25;7.15;;;10.90;99.90;;;;;;4995623;28;20046;-76
2022/06/01 00:08:40;;;;;;;9.10;7.10;;;10.90;99.90;;;;;;4995453;28;20042;-76
2022/06/01 00:11:06;;;;;;;6.63;5.93;;;10.80;99.90;;;;;;4995297;28;20042;-76
2022/06/01 00:13:32;;;;;;;8.15;5.97;;;11.20;99.90;;;;;;4995343;28;20109;-75
2022/06/01 00:15:57;;;;;;;6.68;6.00;;;10.90;99.90;;;;;;4995660;28;20426;-75
2022/06/01 00:18:23;;;;;;;8.00;6.75;;;10.80;99.90;;;;;;4995373;28;20049;-76
2022/06/01 00:20:51;;;;;;;9.75;7.05;;;11.00;99.90;;;;;;4995439;28;20105;-75
2022/06/01 00:23:18;;;;;;;8.20;6.80;;;10.90;99.90;;;;;;4995318;28;20046;-75
2022/06/01 00:25:44;;;;;;;9.23;7.10;;;10.90;99.90;;;;;;4995252;28;20140;-75
2022/06/01 00:28:10;;;;;;;9.18;6.65;;;10.90;99.90;;;;;;4995265;28;20090;-75
2022/06/01 00:30:36;;;;;;;7.57;6.88;;;10.90;99.90;;;;;;4994279;28;20490;-75
2022/06/01 00:33:02;;;;;;;8.32;7.00;;;10.90;99.90;;;;;;4995927;28;20050;-75
2022/06/01 00:35:28;;;;;;;9.38;7.57;;;10.90;99.90;;;;;;4995003;28;20053;-75
2022/06/01 00:37:54;;;;;;;10.55;8.25;;;10.90;99.90;;;;;;4994107;28;20042;-75
2022/06/01 00:40:23;;;;;;;11.43;8.60;;;11.10;99.90;;;;;;4995099;28;20050;-75
2022/06/01 00:42:52;;;;;;;11.93;8.30;;;10.90;99.90;;;;;;4994672;28;20062;-75
2022/06/01 00:45:22;;;;;;;11.40;8.57;;;11.00;99.90;;;;;;4995082;28;20054;-75
2022/06/01 00:47:49;;;;;;;11.60;8.55;;;11.40;99.90;;;;;;4994821;28;20069;-75
2022/06/01 00:50:20;;;;;;;11.73;9.48;;;11.00;99.90;;;;;;4993688;28;20109;-74
2022/06/01 00:52:55;;;;;;;12.32;9.38;;;11.20;99.90;;;;;;4994941;28;20077;-75
2022/06/01 00:55:25;;;;;;;11.13;9.70;;;11.00;99.90;;;;;;4994826;28;20074;-75
2022/06/01 00:57:57;;;;;;;11.25;9.07;;;11.00;99.90;;;;;;4994816;28;20054;-74
2022/06/01 01:00:27;;;;;;;12.55;9.38;;;11.30;99.90;;;;;;4995283;28;20046;-74
2022/06/01 01:02:57;;;;;;;11.75;9.43;;;11.00;99.90;;;;;;4977510;28;20101;-74
2022/06/01 01:05:24;;;;;;;10.75;9.38;;;11.00;99.90;;;;;;4994815;28;20101;-75
2022/06/01 01:07:52;;;;;;;13.10;9.68;;;11.10;99.90;;;;;;4994593;28;20050;-74
2022/06/01 01:10:18;;;;;;;11.75;8.85;;;11.00;99.90;;;;;;4993602;28;20387;-74
2022/06/01 01:12:58;;;;;;;11.57;9.05;;;11.00;99.90;;;;;;4995096;28;20120;-74
2022/06/01 01:15:55;;;;;;;10.63;9.27;;;11.00;99.90;;;;;;4978217;28;20050;-75
2022/06/01 01:18:30;;;;;;;13.65;9.40;;;11.00;99.90;;;;;;4995264;28;20426;-75
2022/06/01 01:21:11;;;;;;;12.05;9.20;;;11.40;99.90;;;;;;4994425;28;20050;-75
2022/06/01 01:23:46;;;;;;;10.57;9.05;;;11.00;99.90;;;;;;4995180;28;20061;-74
2022/06/01 01:26:11;;;;;;;12.10;9.57;;;11.00;99.90;;;;;;4994615;28;20042;-74
2022/06/01 01:28:37;;;;;;;10.15;8.95;;;11.00;99.90;;;;;;4994341;28;20050;-75
2022/06/01 01:31:10;;;;;;;11.52;9.07;;;11.10;99.90;;;;;;4993086;28;20038;-75
2022/06/01 01:33:36;;;;;;;11.98;9.60;;;10.90;99.90;;;;;;4994303;28;20125;-75
2022/06/01 01:36:09;;;;;;;11.07;9.82;;;11.10;99.90;;;;;;4994294;28;20121;-75
2022/06/01 01:38:57;;;;;;;12.45;10.50;;;10.90;99.90;;;;;;4994284;28;20097;-75
2022/06/01 01:41:26;;;;;;;12.65;9.93;;;11.00;99.90;;;;;;4994274;28;20045;-74
2022/06/01 01:44:09;;;;;;;12.65;10.55;;;11.40;99.90;;;;;;4992471;28;20108;-74
2022/06/01 01:46:35;;;;;;;13.07;11.02;;;10.90;99.90;;;;;;5025467;28;20043;-73
2022/06/01 01:49:04;;;;;;;13.77;10.85;;;10.90;99.90;;;;;;4993863;28;20606;-75
2022/06/01 01:51:32;;;;;;;11.85;10.38;;;11.20;99.90;;;;;;4976933;28;20471;-74
2022/06/01 01:54:01;;;;;;;12.85;11.00;;;11.10;99.90;;;;;;4994080;28;20046;-74
2022/06/01 01:56:57;;;;;;;12.77;10.13;;;11.50;99.90;;;;;;4994051;28;20145;-74
2022/06/01 02:00:14;;;;;;;14.27;10.32;;;10.90;99.90;;;;;;4985466;28;20593;-73
2022/06/01 02:03:01;;;;;;;14.90;11.43;;;11.00;99.90;;;;;;4985338;28;20062;-74
2022/06/01 02:06:04;;;;;;;13.73;10.70;;;11.00;99.90;;;;;;4994781;28;20117;-74
2022/06/01 02:08:39;;;;;;;12.68;9.98;;;11.00;99.90;;;;;;4993289;28;20050;-74
2022/06/01 02:14:51;;;;;;;13.07;11.13;;;11.00;99.90;;;;;;4993912;28;20062;-74
2022/06/01 02:17:33;;;;;;;13.73;11.55;;;11.00;99.90;;;;;;4993817;28;20057;-73
2022/06/01 02:20:18;;;;;;;12.93;10.95;;;11.40;99.90;;;;;;4994480;28;20053;-74
2022/06/01 02:22:44;;;;;;;15.57;12.38;;;11.00;99.90;;;;;;4993153;28;20177;-74
2022/06/01 02:25:11;;;;;;;12.88;11.25;;;11.00;99.90;;;;;;4993694;28;20140;-74
2022/06/01 02:27:39;;;;;;;12.50;10.85;;;11.00;99.90;;;;;;4993787;28;20073;-74
2022/06/01 02:30:26;;;;;;;13.98;11.30;;;10.90;99.90;;;;;;4992550;28;20509;-74
2022/06/01 02:32:54;;;;;;;13.02;10.48;;;11.00;99.90;;;;;;4993718;28;20046;-74
2022/06/01 02:35:22;;;;;;;14.20;11.60;;;11.00;99.90;;;;;;4993049;28;20046;-73
2022/06/01 02:37:52;;;;;;;15.05;11.93;;;11.10;99.90;;;;;;4992510;28;20046;-73
2022/06/01 02:40:21;;;;;;;14.85;11.45;;;11.00;99.90;;;;;;4994378;28;20498;-74
2022/06/01 02:42:50;;;;;;;15.23;11.75;;;11.00;99.90;;;;;;4998048;28;20391;-73
2022/06/01 02:45:20;;;;;;;15.80;12.23;;;11.10;99.90;;;;;;4997398;28;20479;-74
2022/06/01 02:47:47;;;;;;;14.95;11.88;;;10.90;99.90;;;;;;4997112;28;20050;-74
2022/06/01 02:50:17;;;;;;;15.43;12.80;;;11.10;99.90;;;;;;4996014;28;20062;-74
2022/06/01 02:52:44;;;;;;;18.15;12.35;;;11.00;99.90;;;;;;4996094;28;20050;-74
2022/06/01 02:55:12;;;;;;;17.95;12.38;;;11.10;99.90;;;;;;4997082;28;20051;-73
2022/06/01 02:57:40;;;;;;;16.20;12.70;;;11.00;99.90;;;;;;4997012;28;20065;-73
2022/06/01 03:00:17;;;;;;;16.05;12.88;;;11.00;99.90;;;;;;4996969;28;20046;-74
2022/06/01 03:02:47;;;;;;;17.27;12.52;;;11.00;99.90;;;;;;4996550;28;20050;-74
2022/06/01 03:05:15;;;;;;;15.45;12.57;;;11.00;99.90;;;;;;4997182;28;20092;-74
2022/06/01 03:07:41;;;;;;;13.88;11.70;;;11.00;99.90;;;;;;4996837;28;20042;-73
2022/06/01 03:10:08;;;;;;;14.50;12.02;;;11.10;99.90;;;;;;4995850;28;20103;-74
2022/06/01 03:12:33;;;;;;;13.50;11.48;;;10.90;99.90;;;;;;4996432;28;20509;-73
2022/06/01 03:14:59;;;;;;;12.73;11.02;;;10.90;99.90;;;;;;4997187;28;20042;-73
2022/06/01 03:17:25;;;;;;;13.57;10.75;;;11.00;99.90;;;;;;4996607;28;20189;-74
2022/06/01 03:19:51;;;;;;;14.82;11.43;;;10.90;99.90;;;;;;4996592;28;20487;-73
2022/06/01 03:22:16;;;;;;;15.38;12.00;;;10.90;99.90;;;;;;4996217;28;20065;-74
2022/06/01 03:24:42;;;;;;;15.77;12.25;;;10.80;99.90;;;;;;4996550;28;20129;-73
2022/06/01 03:27:08;;;;;;;16.35;12.27;;;10.90;99.90;;;;;;4996415;28;20051;-73
2022/06/01 03:29:34;;;;;;;15.80;12.60;;;10.80;99.90;;;;;;4995261;28;20068;-73
2022/06/01 03:31:59;;;;;;;15.27;12.15;;;11.10;99.90;;;;;;4996374;28;20101;-73
2022/06/01 03:34:28;;;;;;;17.67;12.55;;;11.40;99.90;;;;;;4994830;28;20097;-73
2022/06/01 03:36:54;;;;;;;17.35;13.13;;;10.90;99.90;;;;;;4996311;28;20042;-73
2022/06/01 03:39:20;;;;;;;15.27;12.15;;;10.90;99.90;;;;;;4996279;28;20050;-73
2022/06/01 03:41:46;;;;;;;14.90;13.10;;;11.00;99.90;;;;;;4995994;28;20510;-74
2022/06/01 03:47:09;;;;;;;14.80;12.07;;;11.00;99.90;;;;;;4995988;28;20058;-74
2022/06/01 03:49:35;;;;;;;13.68;11.75;;;11.00;99.90;;;;;;4995984;28;20050;-74
2022/06/01 03:52:01;;;;;;;16.48;12.82;;;11.00;99.90;;;;;;4994652;28;20053;-74
2022/06/01 03:54:27;;;;;;;15.10;11.93;;;11.00;99.90;;;;;;4995937;28;20137;-74
2022/06/01 03:56:53;;;;;;;15.45;11.95;;;11.10;99.90;;;;;;4996508;28;20050;-74
2022/06/01 03:59:19;;;;;;;14.00;12.48;;;11.00;99.90;;;;;;4994682;28;20532;-74
2022/06/01 04:01:45;;;;;;;18.33;12.32;;;10.90;99.90;;;;;;4995490;28;20042;-74
2022/06/01 04:04:10;;;;;;;13.70;12.10;;;10.90;99.90;;;;;;4996057;28;20486;-74
2022/06/01 04:06:36;;;;;;;15.55;12.68;;;10.90;99.90;;;;;;4995941;28;20042;-74
2022/06/01 04:09:02;;;;;;;15.10;12.82;;;10.90;99.90;;;;;;4994727;28;20042;-74
2022/06/01 04:11:27;;;;;;;15.80;12.57;;;10.90;99.90;;;;;;4995624;28;20086;-74
2022/06/01 04:13:53;;;;;;;14.38;12.00;;;11.10;99.90;;;;;;4994899;28;20043;-75
2022/06/01 04:16:19;;;;;;;14.85;12.27;;;10.90;99.90;;;;;;4995382;28;20460;-74
2022/06/01 04:18:46;;;;;;;17.13;13.57;;;11.10;99.90;;;;;;4994428;28;20042;-74
2022/06/01 04:21:12;;;;;;;14.40;12.90;;;10.90;99.90;;;;;;4995415;28;20050;-74
2022/06/01 04:23:38;;;;;;;14.68;12.70;;;10.90;99.90;;;;;;4995409;28;20072;-74
2022/06/01 04:26:03;;;;;;;16.23;12.80;;;11.10;99.90;;;;;;4978007;28;20125;-74
2022/06/01 04:28:29;;;;;;;16.63;12.27;;;11.20;99.90;;;;;;4995589;28;20042;-73
2022/06/01 04:30:55;;;;;;;14.75;12.48;;;11.00;99.90;;;;;;4994304;28;20039;-74
2022/06/01 04:33:21;;;;;;;16.30;13.70;;;11.10;99.90;;;;;;4995221;28;20104;-74
2022/06/01 04:35:47;;;;;;;15.05;13.15;;;11.10;99.90;;;;;;4995197;28;20042;-74
2022/06/01 04:38:12;;;;;;;15.02;12.48;;;11.10;99.90;;;;;;4995625;28;20082;-74
2022/06/01 04:40:43;;;;;;;14.65;12.95;;;11.10;99.90;;;;;;4995339;28;20050;-74
2022/06/01 04:43:15;;;;;;;15.13;12.57;;;11.10;99.90;;;;;;4995487;28;20062;-74
2022/06/01 04:45:41;;;;;;;16.15;12.85;;;11.10;99.90;;;;;;4994968;28;20100;-74
2022/06/01 04:48:06;;;;;;;15.27;12.95;;;11.10;99.90;;;;;;4995118;28;20050;-74
2022/06/01 04:50:33;;;;;;;14.60;12.50;;;11.20;99.90;;;;;;4962029;28;20042;-74
2022/06/01 04:53:00;;;;;;;15.75;13.80;;;11.20;99.90;;;;;;4993848;28;20083;-74
2022/06/01 04:55:26;;;;;;;16.30;13.23;;;11.70;99.90;;;;;;4994863;28;20046;-74
2022/06/01 04:57:51;;;;;;;15.15;13.05;;;11.20;99.90;;;;;;4994823;28;20057;-74
2022/06/01 05:00:17;;;;;;;16.77;12.73;;;11.30;99.90;;;;;;4994672;28;20052;-74
2022/06/01 05:02:43;;;;;;;14.82;13.25;;;11.20;99.90;;;;;;4994600;28;20482;-74
2022/06/01 05:05:09;;;;;;;15.52;12.15;;;11.30;99.90;;;;;;4995077;28;20046;-74
2022/06/01 05:07:35;;;;;;;18.92;13.57;;;11.20;99.90;;;;;;4993337;28;20438;-74
2022/06/01 05:10:00;;;;;;;16.63;13.60;;;11.30;99.90;;;;;;4995387;28;20138;-74
2022/06/01 05:12:26;;;;;;;17.55;13.80;;;11.50;99.90;;;;;;4994593;28;20038;-74
2022/06/01 05:14:52;;;;;;;17.27;14.45;;;11.40;99.90;;;;;;4995279;28;20046;-74
2022/06/01 05:17:19;;;;;;;15.05;13.45;;;11.50;99.90;;;;;;4994671;28;20057;-74
2022/06/01 05:19:45;;;;;;;15.90;13.57;;;11.40;99.90;;;;;;4994268;28;20050;-75
2022/06/01 05:22:11;;;;;;;15.68;13.73;;;11.40;99.90;;;;;;4993993;28;20062;-74
2022/06/01 05:24:36;;;;;;;17.33;14.45;;;11.40;99.90;;;;;;4994405;28;20099;-74
2022/06/01 05:27:02;;;;;;;16.77;14.20;;;11.40;99.90;;;;;;4994303;28;20050;-74
2022/06/01 05:29:28;;;;;;;15.00;13.40;;;11.40;99.90;;;;;;4993165;28;20058;-74
2022/06/01 05:31:54;;;;;;;16.88;13.90;;;11.50;99.90;;;;;;4994817;28;20054;-74
2022/06/01 05:34:21;;;;;;;17.85;14.48;;;11.50;99.90;;;;;;4994253;28;20133;-74
2022/06/01 05:36:47;;;;;;;15.20;12.95;;;11.50;99.90;;;;;;4994213;28;20042;-74
2022/06/01 05:39:13;;;;;;;17.20;14.25;;;11.50;99.90;;;;;;4993278;28;20042;-74
2022/06/01 05:41:39;;;;;;;16.55;14.20;;;11.60;99.90;;;;;;4994241;28;20092;-75
2022/06/01 05:44:06;;;;;;;16.35;13.77;;;11.60;99.90;;;;;;4993764;28;20050;-75
2022/06/01 05:46:35;;;;;;;16.65;14.10;;;11.70;99.90;;;;;;4994078;28;20051;-75
2022/06/01 05:49:02;;;;;;;14.90;13.07;;;11.80;99.90;;;;;;4994056;28;20047;-75
2022/06/01 05:51:28;;;;;;;18.67;14.80;;;11.80;99.90;;;;;;4994178;28;20062;-75
2022/06/01 05:53:54;;;;;;;18.02;14.02;;;11.90;99.90;;;;;;4994137;28;20125;-74
2022/06/01 05:56:19;;;;;;;16.48;14.60;;;12.00;99.90;;;;;;4977313;28;20121;-75
2022/06/01 05:58:47;;;;;;;16.35;13.77;;;12.00;99.90;;;;;;4994102;28;20042;-74
2022/06/01 06:01:13;;;;;;;15.55;13.85;;;12.00;99.90;;;;;;4993350;28;20064;-74
2022/06/01 06:03:39;;;;;;;18.50;14.45;;;12.20;99.90;;;;;;4993583;28;20382;-75
2022/06/01 06:06:17;;;;;;;18.42;13.63;;;12.10;99.90;;;;;;4993916;28;20039;-75
2022/06/01 06:08:53;;;;;;;14.35;12.85;;;12.20;99.90;;;;;;4993862;28;20526;-75
2022/06/01 06:11:20;;;;;;;16.90;14.52;;;12.20;99.90;;;;;;4993908;28;20069;-75
2022/06/01 06:13:46;;;;;;;15.95;14.35;;;12.20;99.90;;;;;;4993904;28;20042;-75
2022/06/01 06:16:13;;;;;;;15.48;13.23;;;12.50;99.90;;;;;;4996715;28;20054;-76
2022/06/01 06:18:40;;;;;;;17.42;14.05;;;12.30;99.90;;;;;;4997599;28;20046;-75
2022/06/01 06:21:06;;;;;;;15.73;13.38;;;12.40;99.90;;;;;;4996962;28;20137;-75
2022/06/01 06:23:32;;;;;;;15.57;13.27;;;12.30;99.90;;;;;;4998435;28;20089;-75
2022/06/01 06:25:58;;;;;;;15.20;13.40;;;12.30;99.90;;;;;;4997730;28;20468;-76
2022/06/01 06:28:26;;;;;;;15.50;13.82;;;12.30;99.90;;;;;;4997613;28;20077;-76
2022/06/01 06:30:52;;;;;;;14.43;12.93;;;12.40;99.90;;;;;;4997495;28;20050;-75
2022/06/01 06:33:17;;;;;;;15.00;12.93;;;12.50;99.90;;;;;;4997506;28;20053;-75
2022/06/01 06:35:44;;;;;;;15.50;12.93;;;12.40;99.90;;;;;;4996169;28;20038;-75
2022/06/01 06:38:11;;;;;;;15.70;13.38;;;12.40;99.90;;;;;;4997585;28;20482;-75
2022/06/01 06:40:37;;;;;;;13.77;12.38;;;12.40;99.90;;;;;;4997312;28;20054;-75
2022/06/01 06:43:04;;;;;;;14.93;13.00;;;12.40;99.90;;;;;;4997000;28;20062;-76
2022/06/01 06:45:30;;;;;;;14.93;12.77;;;12.40;99.90;;;;;;4997698;28;20050;-75
2022/06/01 06:47:55;;;;;;;16.83;12.93;;;12.40;99.90;;;;;;4995908;28;20529;-75
2022/06/01 06:50:22;;;;;;;14.73;12.10;;;12.40;99.90;;;;;;4997721;28;20046;-76
2022/06/01 06:52:48;;;;;;;15.43;13.45;;;12.40;99.90;;;;;;4996634;28;20058;-75
2022/06/01 06:55:14;;;;;;;13.88;12.43;;;12.40;99.90;;;;;;4997088;28;20089;-76
2022/06/01 06:57:43;;;;;;;14.73;13.13;;;12.50;99.90;;;;;;4997081;28;20121;-76
2022/06/01 07:00:10;;;;;;;16.08;13.65;;;12.50;99.90;;;;;;4996747;28;20486;-75
2022/06/01 07:02:36;;;;;;;13.98;12.57;;;12.50;99.90;;;;;;5002579;28;20042;-75
2022/06/01 07:05:03;;;;;;;14.85;12.40;;;12.40;99.90;;;;;;4997001;28;20129;-76
2022/06/01 07:07:29;;;;;;;14.43;12.27;;;12.40;99.90;;;;;;4997039;28;20042;-76
2022/06/01 07:09:55;;;;;;;15.68;13.23;;;12.40;99.90;;;;;;4995815;28;20042;-76
2022/06/01 07:12:20;;;;;;;14.98;13.30;;;12.50;99.90;;;;;;4979589;28;20129;-76
2022/06/01 07:14:46;;;;;;;14.60;12.73;;;12.40;99.90;;;;;;4996619;28;20049;-75
2022/06/01 07:17:12;;;;;;;15.20;12.90;;;12.40;99.90;;;;;;4996828;28;20048;-76
2022/06/01 07:19:37;;;;;;;13.13;11.57;;;12.40;99.90;;;;;;4996187;28;20054;-75
2022/06/01 07:22:03;;;;;;;13.65;12.15;;;12.40;99.90;;;;;;5000304;28;20088;-75
2022/06/01 07:24:29;;;;;;;15.23;12.75;;;12.40;99.90;;;;;;4995548;28;20058;-75
2022/06/01 07:26:54;;;;;;;14.02;11.77;;;12.40;99.90;;;;;;4995279;28;20038;-76
2022/06/01 07:29:20;;;;;;;14.75;11.90;;;12.40;99.90;;;;;;4995930;28;20039;-76
2022/06/01 07:31:48;;;;;;;13.82;11.13;;;12.40;99.90;;;;;;4996591;28;20045;-75
2022/06/01 07:34:14;;;;;;;13.75;11.25;;;12.50;99.90;;;;;;4996247;28;20474;-74
2022/06/01 07:36:40;;;;;;;11.88;9.98;;;12.50;99.90;;;;;;4996513;28;20042;-74
2022/06/01 07:44:46;;;;;;;11.85;9.65;;;12.50;99.90;;;;;;4995337;28;20143;-74
2022/06/01 07:47:12;;;;;;;11.38;9.63;;;12.50;99.90;;;;;;4996155;28;20042;-73
2022/06/01 07:49:38;;;;;;;11.50;10.20;;;12.50;99.90;;;;;;4995266;28;20045;-74
2022/06/01 07:52:08;;;;;;;11.32;9.48;;;12.50;99.90;;;;;;4996764;28;20042;-74
2022/06/01 07:54:36;;;;;;;12.20;8.80;;;12.50;99.90;;;;;;4996993;28;20038;-75
2022/06/01 07:57:02;;;;;;;11.60;9.48;;;12.50;99.90;;;;;;4996126;28;20046;-73
2022/06/01 07:59:28;;;;;;;11.45;8.52;;;12.50;99.90;;;;;;4994905;28;20138;-73
2022/06/01 08:01:53;;;;;;;9.85;7.43;;;12.60;99.90;;;;;;4995036;28;20105;-74
2022/06/01 08:04:19;;;;;;;9.20;7.53;;;12.70;99.90;;;;;;4996750;28;20038;-74
2022/06/01 08:06:45;;;;;;;8.30;6.88;;;12.80;99.90;;;;;;4996131;28;20113;-74
2022/06/01 08:09:11;;;;;;;9.30;7.38;;;12.80;99.90;;;;;;4994703;28;20034;-74
2022/06/01 08:14:21;;;;;;;8.48;7.47;;;13.00;99.90;;;;;;4996333;28;20057;-73
2022/06/01 08:16:47;;;;;;;9.23;8.25;;;13.10;99.90;;;;;;4994718;28;20050;-73
2022/06/01 08:19:17;;;;;;;7.40;6.28;;;13.30;99.90;;;;;;4994658;28;20084;-73
2022/06/01 08:21:44;;;;;;;8.05;6.50;;;13.50;99.90;;;;;;4996526;28;20371;-73
2022/06/01 08:24:10;;;;;;;8.02;6.95;;;13.70;99.90;;;;;;4995555;28;20049;-74
2022/06/01 08:26:36;;;;;;;10.23;6.95;;;13.80;99.90;;;;;;4995436;28;20463;-74
2022/06/01 08:29:03;;;;;;;8.45;7.10;;;13.90;99.90;;;;;;4996042;28;20549;-75
2022/06/01 08:31:30;;;;;;;10.48;7.50;;;13.90;99.90;;;;;;4995461;28;20050;-73
2022/06/01 08:33:58;;;;;;;7.95;6.47;;;13.90;99.90;;;;;;4994906;28;20048;-73
2022/06/01 08:36:24;;;;;;;9.38;7.50;;;13.90;99.90;;;;;;4993703;28;20053;-73
2022/06/01 08:38:50;;;;;;;7.78;6.97;;;14.00;99.90;;;;;;4994083;28;20050;-74
2022/06/01 08:41:20;;;;;;;6.85;5.85;;;14.00;99.90;;;;;;4995169;28;20099;-73
2022/06/01 08:43:51;;;;;;;6.45;5.85;;;14.10;99.90;;;;;;4994627;28;20057;-74
2022/06/01 08:46:18;;;;;;;9.07;6.05;;;14.10;99.90;;;;;;4994648;28;20049;-74
2022/06/01 08:48:58;;;;;;;8.00;6.57;;;14.10;99.90;;;;;;4994409;28;20489;-74
2022/06/01 08:51:26;;;;;;;8.50;6.70;;;14.20;99.90;;;;;;4994496;28;20585;-75
2022/06/01 08:53:52;;;;;;;6.28;5.68;;;14.20;99.90;;;;;;4994199;28;20437;-73
2022/06/01 08:56:41;;;;;;;6.45;5.85;;;14.20;99.90;;;;;;4993828;28;20038;-73
2022/06/01 08:59:28;;;;;;;6.72;5.57;;;14.20;99.90;;;;;;4992654;28;20125;-73
2022/06/01 09:01:59;;;;;;;5.65;5.07;;;14.30;99.90;;;;;;4993836;28;20054;-73
2022/06/01 09:04:56;;;;;;;6.00;4.97;;;14.60;99.90;;;;;;4992789;28;20038;-74
2022/06/01 09:07:29;;;;;;;3.95;3.60;;;14.40;99.90;;;;;;4993748;28;20128;-74
2022/06/01 09:10:10;;;;;;;4.85;4.28;;;14.40;99.90;;;;;;4993149;28;20382;-73
2022/06/01 09:12:37;;;;;;;5.28;4.78;;;14.50;99.90;;;;;;4992784;28;20042;-73
2022/06/01 09:15:17;;;;;;;5.68;5.18;;;14.50;99.90;;;;;;4994039;28;20129;-73
2022/06/01 09:17:44;;;;;;;5.32;4.82;;;14.50;99.90;;;;;;4994629;28;20112;-75
2022/06/01 09:23:11;;;;;;;5.72;5.20;;;14.60;99.90;;;;;;4992516;28;20085;-74
2022/06/01 09:25:37;;;;;;;6.68;5.93;;;14.80;99.90;;;;;;4994563;28;20047;-73
2022/06/01 09:28:19;;;;;;;6.28;5.68;;;14.90;99.90;;;;;;4994489;28;20118;-74
2022/06/01 09:30:52;;;;;;;10.23;9.13;;;14.90;99.90;;;;;;4992556;28;20056;-75
2022/06/01 09:33:28;;;;;;;9.38;8.48;;;14.90;99.90;;;;;;4992989;28;20438;-74
2022/06/01 09:36:09;;;;;;;9.90;8.35;;;14.70;99.90;;;;;;4993628;28;20042;-76
2022/06/01 09:38:49;;;;;;;10.88;9.05;;;14.60;99.90;;;;;;4992437;28;20054;-75
2022/06/01 09:41:24;;;;;;;9.88;8.00;;;14.50;99.90;;;;;;4993721;28;20057;-73
2022/06/01 09:43:56;;;;;;;7.82;6.90;;;14.40;99.90;;;;;;4993546;28;20050;-74
2022/06/01 09:46:34;;;;;;;6.05;5.50;;;14.20;99.90;;;;;;4993741;28;20056;-74
2022/06/01 09:49:10;;;;;;;6.03;5.43;;;14.10;99.90;;;;;;4993471;28;20486;-74
2022/06/01 09:51:40;;;;;;;4.68;4.20;;;14.00;99.90;;;;;;4997774;28;20467;-74
2022/06/01 09:54:24;;;;;;;3.92;3.58;;;14.00;99.90;;;;;;4997793;28;20383;-74
2022/06/01 09:56:50;;;;;;;3.33;3.03;;;13.90;99.90;;;;;;4997409;28;20050;-73
2022/06/01 10:08:08;;;;;;;8.05;7.13;;;13.50;99.90;;;;;;4997008;28;20483;-71
2022/06/01 10:10:34;;;;;;;;;;;13.50;99.90;;;;;;4998722;28;20467;-72
2022/06/01 10:13:00;;;;;;;3.78;3.38;;;13.40;99.90;;;;;;5001025;28;19922;-72
2022/06/01 10:15:35;;;;;;;3.05;2.42;;;13.40;99.90;;;;;;4997101;28;20054;-73
2022/06/01 10:18:14;;;;;;;2.30;2.10;;;13.80;99.90;;;;;;4996650;28;20047;-72
2022/06/01 10:20:55;;;;;;;2.40;2.20;;;13.30;99.90;;;;;;4997670;28;20479;-72
2022/06/01 10:23:47;;;;;;;2.45;2.17;;;13.50;99.90;;;;;;4997649;28;20164;-72
2022/06/01 10:26:21;;;;;;;3.83;2.67;;;13.50;99.90;;;;;;4996723;28;20050;-72
2022/06/01 10:28:52;;;;;;;3.25;3.00;;;13.60;99.90;;;;;;4996592;28;20052;-72
2022/06/01 10:31:39;;;;;;;3.53;3.22;;;13.80;99.90;;;;;;4996884;28;20058;-73
2022/06/01 10:34:17;;;;;;;4.13;3.70;;;13.90;99.90;;;;;;4996337;28;20050;-72
2022/06/01 10:36:57;;;;;;;3.88;3.03;;;14.20;99.90;;;;;;4996744;28;20078;-72
2022/06/01 10:39:31;;;;;;;3.78;3.38;;;14.40;99.90;;;;;;4996514;28;20050;-74
2022/06/01 10:42:22;;;;;;;4.20;3.00;;;14.60;99.90;;;;;;4996395;28;20084;-73
2022/06/01 10:45:12;;;;;;;1.40;1.30;;;14.80;99.90;;;;;;4997269;28;20193;-72
2022/06/01 10:48:04;;;;;;;1.88;1.17;;;15.00;99.90;;;;;;4996493;28;20065;-73
2022/06/01 10:50:58;;;;;;;1.50;0.75;;;15.10;99.90;;;;;;4995321;28;20104;-73
2022/06/01 10:53:45;;;;;;;2.20;1.50;;;15.20;99.90;;;;;;4991391;28;20407;-73
2022/06/01 10:56:12;;;;;;;1.73;1.00;;;15.20;99.90;;;;;;4996729;28;20046;-74
2022/06/01 10:58:38;;;;;;;1.10;0.88;;;15.30;99.90;;;;;;4994855;28;20129;-72
2022/06/01 11:01:35;;;;;;;2.35;1.70;;;15.30;99.90;;;;;;4995028;28;20471;-73
2022/06/01 11:04:22;;;;;;;1.85;1.52;;;15.30;99.90;;;;;;4997005;28;20054;-74
2022/06/01 11:06:58;;;;;;;0.80;0.80;;;15.20;99.90;;;;;;4996261;28;20054;-72
2022/06/01 11:09:37;;;;;;;1.10;0.88;;;15.10;99.90;;;;;;4996891;28;20050;-71
2022/06/01 11:12:18;;;;;;;1.15;0.90;;;15.10;99.90;;;;;;4996145;28;20050;-72
2022/06/01 11:15:15;;;;;;;1.92;1.00;;;15.00;99.90;;;;;;4995948;28;20054;-74
2022/06/01 11:18:13;;;;;;;1.15;1.05;;;15.00;99.90;;;;;;4996762;28;20105;-72
2022/06/01 11:20:42;;;;;;;3.80;1.10;;;15.10;99.90;;;;;;4997595;28;20045;-72
2022/06/01 11:23:32;;;;;;;2.20;1.65;;;15.10;99.90;;;;;;4996594;28;20052;-73
2022/06/01 11:26:33;;;;;;;1.95;1.10;;;15.10;99.90;;;;;;4996528;28;20506;-73
2022/06/01 11:29:18;;;;;;;1.75;1.40;;;15.10;99.90;;;;;;4996822;28;20068;-74
2022/06/01 11:31:49;;;;;;;2.33;1.63;;;15.20;99.90;;;;;;4994826;28;20061;-74
2022/06/01 11:34:38;;;;;;;2.10;1.70;;;15.30;99.90;;;;;;4997041;28;20047;-74
2022/06/01 11:37:18;;;;;;;1.40;1.20;;;15.40;99.90;;;;;;4997257;28;20093;-73
2022/06/01 11:40:13;;;;;;;1.98;1.17;;;15.50;99.90;;;;;;4996394;28;20047;-73
2022/06/01 11:42:43;;;;;;;2.22;1.30;;;15.60;99.90;;;;;;4996029;28;20086;-74
2022/06/01 11:45:11;;;;;;;2.42;1.50;;;15.80;99.90;;;;;;4996067;28;20120;-74
2022/06/01 11:47:49;;;;;;;1.52;1.30;;;16.00;99.90;;;;;;4996135;28;20124;-74
2022/06/01 11:50:36;;;;;;;1.90;1.60;;;16.00;99.90;;;;;;4996286;28;20050;-74
2022/06/01 11:53:09;;;;;;;1.50;1.40;;;16.00;99.90;;;;;;4996120;28;20137;-73
2022/06/01 11:55:38;;;;;;;2.13;1.23;;;15.80;99.90;;;;;;4995960;28;20475;-74
2022/06/01 11:58:21;;;;;;;1.85;1.50;;;15.70;99.90;;;;;;4996012;28;20046;-78
2022/06/01 12:00:53;;;;;;;;;;;15.70;99.90;;;;;;4995721;28;20054;-73
2022/06/01 12:03:24;;;;;;;4.43;1.90;;;15.40;99.90;;;;;;5011940;28;19922;-73
2022/06/01 12:06:13;;;;;;;3.47;2.42;;;15.20;99.90;;;;;;4995797;28;20050;-73
2022/06/01 12:08:56;;;;;;;4.00;2.28;;;15.00;99.90;;;;;;4996339;28;20054;-74
2022/06/01 12:11:40;;;;;;;3.88;2.58;;;14.70;99.90;;;;;;4978567;28;20056;-71
2022/06/01 12:14:29;;;;;;;3.17;2.88;;;14.40;99.90;;;;;;4978405;28;20104;-71
2022/06/01 12:17:17;;;;;;;4.15;3.08;;;14.10;99.90;;;;;;4995585;28;20464;-71
2022/06/01 12:19:49;;;;;;;12.80;5.25;;;13.80;99.90;;;;;;4988365;28;20085;-75
2022/06/01 12:28:31;;;;;;;3.92;2.63;;;13.00;99.90;;;;;;4994519;28;20054;-75
2022/06/01 12:31:13;;;;;;;5.65;3.10;;;12.60;99.90;;;;;;4993571;28;20184;-78
2022/06/01 12:34:03;;;;;;;4.22;3.30;;;12.40;99.90;;;;;;4994975;28;20055;-78
2022/06/01 12:36:32;;;;;;;8.02;5.25;;;12.20;99.90;;;;;;4993067;28;20093;-80
2022/06/01 12:38:59;;;;;;;5.25;4.07;;;12.20;99.90;;;;;;4993931;28;20070;-81
2022/06/01 12:41:28;;;;;;;4.57;3.08;;;12.30;99.90;;;;;;4993248;28;20073;-78
2022/06/01 12:43:58;;;;;;;4.43;2.88;;;12.30;99.90;;;;;;4994673;28;20070;-81
2022/06/01 12:46:31;;;;;;;3.17;2.58;;;12.40;99.90;;;;;;4994208;28;20054;-80
2022/06/01 12:49:36;;;;;;;5.07;3.90;;;12.20;99.90;;;;;;4994071;28;20038;-80
2022/06/01 12:52:11;;;;;;;6.75;4.65;;;12.20;99.90;;;;;;4995168;28;20134;-81
2022/06/01 12:54:40;;;;;;;8.00;5.85;;;12.20;99.90;;;;;;4995000;28;20093;-80
2022/06/01 12:57:11;;;;;;;8.18;6.40;;;12.30;99.90;;;;;;4995787;28;20442;-80
2022/06/01 12:59:39;;;;;;;8.07;6.13;;;12.40;99.90;;;;;;4980256;28;20371;-80
2022/06/01 13:02:09;;;;;;;7.35;5.95;;;12.50;99.90;;;;;;4994862;28;20038;-80
2022/06/01 13:04:35;;;;;;;7.10;5.40;;;12.60;99.90;;;;;;4978612;28;20050;-81
2022/06/01 13:07:02;;;;;;;6.25;5.35;;;12.80;99.90;;;;;;4995025;28;20038;-81
2022/06/01 13:09:30;;;;;;;7.50;5.35;;;12.90;99.90;;;;;;4995259;28;20138;-82
2022/06/01 13:12:06;;;;;;;7.63;5.45;;;13.00;99.90;;;;;;4995226;28;20054;-81
2022/06/01 13:14:34;;;;;;;4.32;3.92;;;13.20;99.90;;;;;;4995234;28;20050;-81
2022/06/01 13:17:09;;;;;;;5.53;4.90;;;13.30;99.90;;;;;;4994603;28;20046;-81
2022/06/01 13:19:35;;;;;;;6.28;5.00;;;13.30;99.90;;;;;;4993823;28;20046;-79
2022/06/01 13:22:13;;;;;;;5.13;4.63;;;13.40;99.90;;;;;;4993574;28;20046;-80
2022/06/01 13:24:48;;;;;;;9.23;6.57;;;13.40;99.90;;;;;;4993773;28;20054;-80
2022/06/01 13:27:15;;;;;;;7.60;6.90;;;13.30;99.90;;;;;;4994525;28;20049;-79
2022/06/01 13:29:52;;;;;;;8.98;7.05;;;13.30;99.90;;;;;;4994478;28;20057;-78
2022/06/01 13:32:19;;;;;;;8.10;6.50;;;13.40;99.90;;;;;;4993523;28;20058;-78